sensor_id;sensor_type;location;lat;lon;timestamp;pressure;altitude;pressure_sealevel;temperature;humidity
49529;BME280;35423;37.320;-121.762;2023-01-28T00:01:03;100211.43;;;39.02;4.84
49529;BME280;35423;37.320;-121.762;2023-01-28T00:03:32;100210.06;;;37.95;5.03
49529;BME280;35423;37.320;-121.762;2023-01-28T00:06:03;100201.53;;;37.54;5.20
49529;BME280;35423;37.320;-121.762;2023-01-28T00:08:38;100195.40;;;37.53;5.39
49529;BME280;35423;37.320;-121.762;2023-01-28T00:11:05;100187.41;;;37.27;5.51
49529;BME280;35423;37.320;-121.762;2023-01-28T00:13:34;100194.20;;;37.31;5.41
49529;BME280;35423;37.320;-121.762;2023-01-28T00:16:05;100196.32;;;37.54;5.39
49529;BME280;35423;37.320;-121.762;2023-01-28T00:18:40;100189.61;;;37.33;5.26
49529;BME280;35423;37.320;-121.762;2023-01-28T00:21:07;100186.74;;;37.64;5.28
49529;BME280;35423;37.320;-121.762;2023-01-28T00:23:36;100179.57;;;37.31;5.34
49529;BME280;35423;37.320;-121.762;2023-01-28T00:26:11;100175.20;;;37.37;5.53
49529;BME280;35423;37.320;-121.762;2023-01-28T00:28:43;100171.76;;;37.20;5.58
49529;BME280;35423;37.320;-121.762;2023-01-28T00:31:16;100180.14;;;36.73;5.72
49529;BME280;35423;37.320;-121.762;2023-01-28T00:33:38;100175.85;;;36.20;5.82
49529;BME280;35423;37.320;-121.762;2023-01-28T00:36:06;100170.44;;;36.03;6.06
49529;BME280;35423;37.320;-121.762;2023-01-28T00:38:39;100167.22;;;35.47;6.17
49529;BME280;35423;37.320;-121.762;2023-01-28T00:41:08;100159.50;;;35.67;6.35
49529;BME280;35423;37.320;-121.762;2023-01-28T00:43:32;100158.08;;;35.25;6.40
49529;BME280;35423;37.320;-121.762;2023-01-28T00:46:03;100149.98;;;35.26;6.58
49529;BME280;35423;37.320;-121.762;2023-01-28T00:48:29;100150.77;;;34.95;6.86
49529;BME280;35423;37.320;-121.762;2023-01-28T00:50:54;100150.33;;;34.82;6.91
49529;BME280;35423;37.320;-121.762;2023-01-28T00:53:21;100145.24;;;34.46;7.14
49529;BME280;35423;37.320;-121.762;2023-01-28T00:55:48;100144.76;;;34.23;7.43
49529;BME280;35423;37.320;-121.762;2023-01-28T00:58:26;100145.47;;;33.84;7.62
49529;BME280;35423;37.320;-121.762;2023-01-28T01:00:52;100147.70;;;33.69;7.89
49529;BME280;35423;37.320;-121.762;2023-01-28T01:03:27;100140.47;;;33.63;8.10
49529;BME280;35423;37.320;-121.762;2023-01-28T01:05:53;100137.11;;;33.36;8.29
49529;BME280;35423;37.320;-121.762;2023-01-28T01:08:18;100134.47;;;33.07;8.50
49529;BME280;35423;37.320;-121.762;2023-01-28T01:10:46;100135.82;;;32.81;8.72
49529;BME280;35423;37.320;-121.762;2023-01-28T01:13:15;100129.68;;;32.53;8.90
49529;BME280;35423;37.320;-121.762;2023-01-28T01:15:44;100127.58;;;32.69;9.10
49529;BME280;35423;37.320;-121.762;2023-01-28T01:18:13;100128.13;;;32.20;9.18
49529;BME280;35423;37.320;-121.762;2023-01-28T01:20:51;100128.95;;;32.12;9.32
49529;BME280;35423;37.320;-121.762;2023-01-28T01:23:21;100125.03;;;31.83;9.47
49529;BME280;35423;37.320;-121.762;2023-01-28T01:25:48;100125.89;;;31.33;9.51
49529;BME280;35423;37.320;-121.762;2023-01-28T01:28:20;100124.33;;;31.22;9.61
49529;BME280;35423;37.320;-121.762;2023-01-28T01:30:45;100122.60;;;31.17;9.58
49529;BME280;35423;37.320;-121.762;2023-01-28T01:33:18;100119.93;;;30.62;9.66
49529;BME280;35423;37.320;-121.762;2023-01-28T01:35:43;100113.94;;;30.42;9.78
49529;BME280;35423;37.320;-121.762;2023-01-28T01:38:11;100115.66;;;30.12;9.87
49529;BME280;35423;37.320;-121.762;2023-01-28T01:40:37;100123.72;;;30.39;9.94
49529;BME280;35423;37.320;-121.762;2023-01-28T01:43:14;100125.19;;;29.81;10.21
49529;BME280;35423;37.320;-121.762;2023-01-28T01:45:34;100120.74;;;29.75;10.53
49529;BME280;35423;37.320;-121.762;2023-01-28T01:48:03;100125.19;;;29.72;10.64
49529;BME280;35423;37.320;-121.762;2023-01-28T01:50:31;100129.36;;;29.37;10.94
49529;BME280;35423;37.320;-121.762;2023-01-28T01:53:01;100128.70;;;29.10;11.11
49529;BME280;35423;37.320;-121.762;2023-01-28T01:55:28;100131.70;;;29.13;11.30
49529;BME280;35423;37.320;-121.762;2023-01-28T01:57:57;100137.79;;;28.66;11.58
49529;BME280;35423;37.320;-121.762;2023-01-28T02:00:20;100141.44;;;28.75;11.85
49529;BME280;35423;37.320;-121.762;2023-01-28T02:02:49;100134.53;;;28.59;12.06
49529;BME280;35423;37.320;-121.762;2023-01-28T02:05:20;100123.72;;;28.31;12.41
49529;BME280;35423;37.320;-121.762;2023-01-28T02:07:53;100125.45;;;27.75;12.64
49529;BME280;35423;37.320;-121.762;2023-01-28T02:10:16;100132.28;;;27.27;12.75
49529;BME280;35423;37.320;-121.762;2023-01-28T02:12:46;100141.39;;;27.34;12.82
49529;BME280;35423;37.320;-121.762;2023-01-28T02:15:23;100139.48;;;27.32;12.87
49529;BME280;35423;37.320;-121.762;2023-01-28T02:17:50;100132.44;;;27.36;13.08
49529;BME280;35423;37.320;-121.762;2023-01-28T02:20:20;100123.10;;;27.13;13.30
49529;BME280;35423;37.320;-121.762;2023-01-28T02:30:07;100116.66;;;26.70;14.00
49529;BME280;35423;37.320;-121.762;2023-01-28T02:32:37;100121.24;;;26.42;13.97
49529;BME280;35423;37.320;-121.762;2023-01-28T02:35:13;100124.79;;;26.36;14.04
49529;BME280;35423;37.320;-121.762;2023-01-28T02:37:41;100116.98;;;26.31;13.93
49529;BME280;35423;37.320;-121.762;2023-01-28T02:40:11;100109.21;;;26.37;13.95
49529;BME280;35423;37.320;-121.762;2023-01-28T02:42:36;100118.04;;;26.39;14.00
49529;BME280;35423;37.320;-121.762;2023-01-28T02:45:02;100127.37;;;26.27;14.11
49529;BME280;35423;37.320;-121.762;2023-01-28T02:47:36;100123.48;;;26.19;14.13
49529;BME280;35423;37.320;-121.762;2023-01-28T02:50:10;100120.79;;;26.18;14.10
49529;BME280;35423;37.320;-121.762;2023-01-28T02:55:07;100119.26;;;26.22;14.35
49529;BME280;35423;37.320;-121.762;2023-01-28T02:57:34;100116.30;;;26.18;14.43
49529;BME280;35423;37.320;-121.762;2023-01-28T03:00:03;100118.94;;;26.13;14.54
49529;BME280;35423;37.320;-121.762;2023-01-28T03:02:33;100122.19;;;26.15;15.06
49529;BME280;35423;37.320;-121.762;2023-01-28T03:05:01;100121.60;;;25.59;15.31
49529;BME280;35423;37.320;-121.762;2023-01-28T03:07:25;100120.21;;;25.71;15.60
49529;BME280;35423;37.320;-121.762;2023-01-28T03:09:51;100118.91;;;25.37;15.94
49529;BME280;35423;37.320;-121.762;2023-01-28T03:12:20;100121.42;;;25.51;16.20
49529;BME280;35423;37.320;-121.762;2023-01-28T03:14:51;100127.11;;;25.43;16.45
49529;BME280;35423;37.320;-121.762;2023-01-28T03:17:21;100124.93;;;25.29;16.59
49529;BME280;35423;37.320;-121.762;2023-01-28T03:19:49;100117.72;;;25.39;16.72
49529;BME280;35423;37.320;-121.762;2023-01-28T03:22:14;100118.10;;;25.24;16.78
49529;BME280;35423;37.320;-121.762;2023-01-28T03:24:46;100116.54;;;25.06;16.74
49529;BME280;35423;37.320;-121.762;2023-01-28T03:27:13;100118.59;;;24.77;16.83
49529;BME280;35423;37.320;-121.762;2023-01-28T03:29:38;100123.50;;;24.65;16.85
49529;BME280;35423;37.320;-121.762;2023-01-28T03:32:03;100129.56;;;24.82;17.17
49529;BME280;35423;37.320;-121.762;2023-01-28T03:34:38;100135.65;;;24.05;17.25
49529;BME280;35423;37.320;-121.762;2023-01-28T03:37:03;100140.82;;;24.52;17.33
49529;BME280;35423;37.320;-121.762;2023-01-28T03:39:30;100147.38;;;24.36;17.61
49529;BME280;35423;37.320;-121.762;2023-01-28T03:41:59;100154.61;;;24.37;18.13
49529;BME280;35423;37.320;-121.762;2023-01-28T03:44:28;100154.72;;;23.81;18.33
49529;BME280;35423;37.320;-121.762;2023-01-28T03:46:51;100150.20;;;23.63;18.49
49529;BME280;35423;37.320;-121.762;2023-01-28T03:49:22;100144.33;;;23.99;18.64
49529;BME280;35423;37.320;-121.762;2023-01-28T03:51:46;100149.65;;;23.63;18.69
49529;BME280;35423;37.320;-121.762;2023-01-28T03:54:14;100155.31;;;23.66;19.04
49529;BME280;35423;37.320;-121.762;2023-01-28T03:56:52;100156.30;;;23.12;19.25
49529;BME280;35423;37.320;-121.762;2023-01-28T03:59:17;100149.83;;;22.84;19.73
49529;BME280;35423;37.320;-121.762;2023-01-28T04:01:45;100147.33;;;22.76;19.89
49529;BME280;35423;37.320;-121.762;2023-01-28T04:04:11;100149.15;;;22.50;19.76
49529;BME280;35423;37.320;-121.762;2023-01-28T04:06:36;100137.72;;;22.74;19.79
49529;BME280;35423;37.320;-121.762;2023-01-28T04:09:03;100132.62;;;22.39;20.13
49529;BME280;35423;37.320;-121.762;2023-01-28T04:11:29;100144.96;;;22.24;20.17
49529;BME280;35423;37.320;-121.762;2023-01-28T04:13:57;100148.24;;;22.34;20.27
49529;BME280;35423;37.320;-121.762;2023-01-28T04:16:23;100150.92;;;22.26;20.30
49529;BME280;35423;37.320;-121.762;2023-01-28T04:18:48;100145.92;;;22.30;20.27
49529;BME280;35423;37.320;-121.762;2023-01-28T04:21:17;100146.61;;;22.52;20.31
49529;BME280;35423;37.320;-121.762;2023-01-28T04:23:48;100143.55;;;22.03;20.28
49529;BME280;35423;37.320;-121.762;2023-01-28T04:26:16;100145.62;;;21.99;20.34
49529;BME280;35423;37.320;-121.762;2023-01-28T04:28:42;100150.10;;;21.71;20.23
49529;BME280;35423;37.320;-121.762;2023-01-28T04:31:09;100149.81;;;21.99;19.89
49529;BME280;35423;37.320;-121.762;2023-01-28T04:33:41;100150.18;;;22.44;19.66
49529;BME280;35423;37.320;-121.762;2023-01-28T04:36:06;100147.84;;;22.11;19.92
49529;BME280;35423;37.320;-121.762;2023-01-28T04:38:33;100150.17;;;21.91;19.85
49529;BME280;35423;37.320;-121.762;2023-01-28T04:41:07;100145.21;;;21.69;19.75
49529;BME280;35423;37.320;-121.762;2023-01-28T04:43:33;100146.22;;;21.76;19.62
49529;BME280;35423;37.320;-121.762;2023-01-28T04:46:04;100145.27;;;21.94;19.71
49529;BME280;35423;37.320;-121.762;2023-01-28T04:48:50;100144.62;;;21.76;19.61
49529;BME280;35423;37.320;-121.762;2023-01-28T04:51:19;100141.86;;;21.88;19.76
49529;BME280;35423;37.320;-121.762;2023-01-28T04:53:44;100142.96;;;21.84;19.63
49529;BME280;35423;37.320;-121.762;2023-01-28T04:56:09;100138.79;;;21.85;19.62
49529;BME280;35423;37.320;-121.762;2023-01-28T04:58:38;100139.05;;;21.97;19.69
49529;BME280;35423;37.320;-121.762;2023-01-28T05:01:16;100133.37;;;21.72;19.73
49529;BME280;35423;37.320;-121.762;2023-01-28T05:03:49;100128.19;;;21.93;19.67
49529;BME280;35423;37.320;-121.762;2023-01-28T05:06:20;100131.70;;;21.82;19.68
49529;BME280;35423;37.320;-121.762;2023-01-28T05:08:47;100128.25;;;21.35;19.85
49529;BME280;35423;37.320;-121.762;2023-01-28T05:11:17;100126.95;;;21.22;20.07
49529;BME280;35423;37.320;-121.762;2023-01-28T05:13:54;100122.02;;;20.74;20.18
49529;BME280;35423;37.320;-121.762;2023-01-28T05:16:23;100119.63;;;21.16;20.26
49529;BME280;35423;37.320;-121.762;2023-01-28T05:18:51;100119.53;;;21.48;20.21
49529;BME280;35423;37.320;-121.762;2023-01-28T05:21:22;100119.56;;;21.27;20.27
49529;BME280;35423;37.320;-121.762;2023-01-28T05:23:53;100120.52;;;21.43;20.24
49529;BME280;35423;37.320;-121.762;2023-01-28T05:26:19;100123.11;;;21.72;20.26
49529;BME280;35423;37.320;-121.762;2023-01-28T05:28:47;100120.93;;;21.62;20.16
49529;BME280;35423;37.320;-121.762;2023-01-28T05:31:15;100120.04;;;21.42;20.19
49529;BME280;35423;37.320;-121.762;2023-01-28T05:33:40;100120.88;;;21.58;20.13
49529;BME280;35423;37.320;-121.762;2023-01-28T05:36:08;100122.34;;;21.94;20.13
49529;BME280;35423;37.320;-121.762;2023-01-28T05:38:37;100122.88;;;21.50;20.15
49529;BME280;35423;37.320;-121.762;2023-01-28T05:41:00;100122.91;;;22.08;20.11
49529;BME280;35423;37.320;-121.762;2023-01-28T05:43:39;100108.38;;;21.79;20.21
49529;BME280;35423;37.320;-121.762;2023-01-28T05:46:16;100105.37;;;21.65;20.10
49529;BME280;35423;37.320;-121.762;2023-01-28T05:48:41;100103.47;;;21.99;20.28
49529;BME280;35423;37.320;-121.762;2023-01-28T05:51:08;100098.50;;;21.73;20.27
49529;BME280;35423;37.320;-121.762;2023-01-28T05:53:37;100099.58;;;21.48;20.35
49529;BME280;35423;37.320;-121.762;2023-01-28T05:56:05;100106.84;;;21.69;20.42
49529;BME280;35423;37.320;-121.762;2023-01-28T05:58:54;100099.73;;;21.97;20.45
49529;BME280;35423;37.320;-121.762;2023-01-28T06:01:24;100100.43;;;21.66;20.95
49529;BME280;35423;37.320;-121.762;2023-01-28T06:03:48;100092.81;;;21.46;20.94
49529;BME280;35423;37.320;-121.762;2023-01-28T06:06:15;100088.40;;;21.43;20.94
49529;BME280;35423;37.320;-121.762;2023-01-28T06:08:52;100088.65;;;21.49;20.92
49529;BME280;35423;37.320;-121.762;2023-01-28T06:11:20;100081.60;;;21.40;21.05
49529;BME280;35423;37.320;-121.762;2023-01-28T06:13:49;100082.45;;;21.24;21.23
49529;BME280;35423;37.320;-121.762;2023-01-28T06:16:16;100086.69;;;21.13;21.26
49529;BME280;35423;37.320;-121.762;2023-01-28T06:18:44;100085.54;;;21.33;21.29
49529;BME280;35423;37.320;-121.762;2023-01-28T06:21:09;100081.31;;;21.05;21.36
49529;BME280;35423;37.320;-121.762;2023-01-28T06:23:37;100081.47;;;20.99;21.42
49529;BME280;35423;37.320;-121.762;2023-01-28T06:26:05;100083.23;;;20.89;21.54
49529;BME280;35423;37.320;-121.762;2023-01-28T06:28:51;100084.49;;;20.86;21.58
49529;BME280;35423;37.320;-121.762;2023-01-28T06:31:17;100091.94;;;21.02;21.65
49529;BME280;35423;37.320;-121.762;2023-01-28T06:33:46;100086.16;;;20.80;21.67
49529;BME280;35423;37.320;-121.762;2023-01-28T06:36:12;100086.19;;;21.04;21.70
49529;BME280;35423;37.320;-121.762;2023-01-28T06:38:37;100087.79;;;20.86;21.67
49529;BME280;35423;37.320;-121.762;2023-01-28T06:41:03;100089.29;;;21.11;21.67
49529;BME280;35423;37.320;-121.762;2023-01-28T06:43:42;100082.49;;;21.20;21.68
49529;BME280;35423;37.320;-121.762;2023-01-28T06:46:09;100080.58;;;20.99;21.73
49529;BME280;35423;37.320;-121.762;2023-01-28T06:48:37;100079.12;;;20.98;21.82
49529;BME280;35423;37.320;-121.762;2023-01-28T06:51:05;100080.79;;;21.25;21.77
49529;BME280;35423;37.320;-121.762;2023-01-28T06:53:34;100083.18;;;21.02;21.89
49529;BME280;35423;37.320;-121.762;2023-01-28T06:55:57;100085.08;;;21.11;22.18
49529;BME280;35423;37.320;-121.762;2023-01-28T06:58:25;100079.58;;;21.12;22.10
49529;BME280;35423;37.320;-121.762;2023-01-28T07:00:53;100078.29;;;20.95;22.13
49529;BME280;35423;37.320;-121.762;2023-01-28T07:03:18;100078.06;;;21.27;22.00
49529;BME280;35423;37.320;-121.762;2023-01-28T07:05:50;100073.54;;;21.56;21.96
49529;BME280;35423;37.320;-121.762;2023-01-28T07:08:15;100071.80;;;21.31;21.95
49529;BME280;35423;37.320;-121.762;2023-01-28T07:10:41;100073.61;;;21.29;22.01
49529;BME280;35423;37.320;-121.762;2023-01-28T07:13:06;100075.23;;;21.21;22.12
49529;BME280;35423;37.320;-121.762;2023-01-28T07:15:33;100074.90;;;21.23;22.45
49529;BME280;35423;37.320;-121.762;2023-01-28T07:17:58;100071.81;;;21.48;22.44
49529;BME280;35423;37.320;-121.762;2023-01-28T07:20:33;100069.65;;;21.02;22.78
49529;BME280;35423;37.320;-121.762;2023-01-28T07:23:03;100066.82;;;20.94;22.90
49529;BME280;35423;37.320;-121.762;2023-01-28T07:25:34;100068.28;;;20.52;23.05
49529;BME280;35423;37.320;-121.762;2023-01-28T07:28:04;100061.76;;;20.61;23.01
49529;BME280;35423;37.320;-121.762;2023-01-28T07:30:34;100060.52;;;20.86;23.11
49529;BME280;35423;37.320;-121.762;2023-01-28T07:33:09;100061.87;;;20.69;23.05
49529;BME280;35423;37.320;-121.762;2023-01-28T07:35:34;100059.48;;;20.72;23.17
49529;BME280;35423;37.320;-121.762;2023-01-28T07:38:07;100053.72;;;21.05;23.13
49529;BME280;35423;37.320;-121.762;2023-01-28T07:40:35;100053.84;;;21.04;23.22
49529;BME280;35423;37.320;-121.762;2023-01-28T07:42:59;100058.33;;;20.54;23.22
49529;BME280;35423;37.320;-121.762;2023-01-28T07:45:26;100054.73;;;20.98;23.29
49529;BME280;35423;37.320;-121.762;2023-01-28T07:48:00;100058.65;;;20.98;23.30
49529;BME280;35423;37.320;-121.762;2023-01-28T07:50:23;100053.76;;;20.96;23.31
49529;BME280;35423;37.320;-121.762;2023-01-28T07:52:50;100047.61;;;20.55;23.49
49529;BME280;35423;37.320;-121.762;2023-01-28T07:55:20;100050.57;;;20.67;23.68
49529;BME280;35423;37.320;-121.762;2023-01-28T07:57:52;100054.67;;;20.66;23.65
49529;BME280;35423;37.320;-121.762;2023-01-28T08:00:16;100056.17;;;20.66;23.63
49529;BME280;35423;37.320;-121.762;2023-01-28T08:02:43;100057.20;;;20.38;23.67
49529;BME280;35423;37.320;-121.762;2023-01-28T08:05:14;100057.59;;;20.68;23.57
49529;BME280;35423;37.320;-121.762;2023-01-28T08:07:40;100056.82;;;20.64;23.56
49529;BME280;35423;37.320;-121.762;2023-01-28T08:10:10;100058.10;;;20.62;23.60
49529;BME280;35423;37.320;-121.762;2023-01-28T08:12:37;100053.54;;;20.61;23.51
49529;BME280;35423;37.320;-121.762;2023-01-28T08:15:03;100054.34;;;20.59;23.51
49529;BME280;35423;37.320;-121.762;2023-01-28T08:17:29;100050.79;;;20.58;23.51
49529;BME280;35423;37.320;-121.762;2023-01-28T08:19:54;100053.04;;;20.61;23.51
49529;BME280;35423;37.320;-121.762;2023-01-28T08:22:28;100057.01;;;20.57;23.53
49529;BME280;35423;37.320;-121.762;2023-01-28T08:25:00;100056.47;;;20.74;23.52
49529;BME280;35423;37.320;-121.762;2023-01-28T08:27:28;100057.72;;;20.41;23.64
49529;BME280;35423;37.320;-121.762;2023-01-28T08:29:56;100061.36;;;20.44;23.57
49529;BME280;35423;37.320;-121.762;2023-01-28T08:32:22;100054.49;;;20.41;23.57
49529;BME280;35423;37.320;-121.762;2023-01-28T08:34:47;100052.18;;;20.39;23.59
49529;BME280;35423;37.320;-121.762;2023-01-28T08:37:14;100055.87;;;20.34;23.63
49529;BME280;35423;37.320;-121.762;2023-01-28T08:39:40;100057.06;;;20.31;23.66
49529;BME280;35423;37.320;-121.762;2023-01-28T08:42:09;100059.49;;;20.30;23.68
49529;BME280;35423;37.320;-121.762;2023-01-28T08:44:39;100063.13;;;20.24;23.71
49529;BME280;35423;37.320;-121.762;2023-01-28T08:47:05;100060.06;;;20.04;23.87
49529;BME280;35423;37.320;-121.762;2023-01-28T08:49:30;100060.12;;;20.43;23.84
49529;BME280;35423;37.320;-121.762;2023-01-28T08:51:55;100061.57;;;19.97;23.85
49529;BME280;35423;37.320;-121.762;2023-01-28T08:54:30;100064.40;;;20.20;23.86
49529;BME280;35423;37.320;-121.762;2023-01-28T08:56:58;100063.90;;;20.16;23.85
49529;BME280;35423;37.320;-121.762;2023-01-28T08:59:23;100065.31;;;20.30;23.94
49529;BME280;35423;37.320;-121.762;2023-01-28T09:01:50;100062.58;;;19.73;24.02
49529;BME280;35423;37.320;-121.762;2023-01-28T09:04:19;100061.85;;;20.00;24.21
49529;BME280;35423;37.320;-121.762;2023-01-28T09:06:50;100061.00;;;19.65;24.35
49529;BME280;35423;37.320;-121.762;2023-01-28T09:09:17;100060.73;;;19.75;24.41
49529;BME280;35423;37.320;-121.762;2023-01-28T09:11:41;100052.83;;;19.63;24.45
49529;BME280;35423;37.320;-121.762;2023-01-28T09:14:08;100048.11;;;19.52;24.61
49529;BME280;35423;37.320;-121.762;2023-01-28T09:16:35;100040.63;;;19.49;24.62
49529;BME280;35423;37.320;-121.762;2023-01-28T09:19:01;100039.17;;;19.53;24.65
49529;BME280;35423;37.320;-121.762;2023-01-28T09:21:30;100040.55;;;19.79;24.72
49529;BME280;35423;37.320;-121.762;2023-01-28T09:24:00;100040.58;;;19.40;24.78
49529;BME280;35423;37.320;-121.762;2023-01-28T09:26:27;100041.63;;;19.34;24.79
49529;BME280;35423;37.320;-121.762;2023-01-28T09:28:56;100045.18;;;19.29;24.82
49529;BME280;35423;37.320;-121.762;2023-01-28T09:31:39;100043.18;;;19.52;24.96
49529;BME280;35423;37.320;-121.762;2023-01-28T09:34:09;100044.05;;;19.28;24.83
49529;BME280;35423;37.320;-121.762;2023-01-28T09:36:40;100042.56;;;19.31;24.77
49529;BME280;35423;37.320;-121.762;2023-01-28T09:39:06;100042.86;;;19.12;24.81
49529;BME280;35423;37.320;-121.762;2023-01-28T09:41:38;100047.66;;;19.38;24.80
49529;BME280;35423;37.320;-121.762;2023-01-28T09:44:05;100052.38;;;18.94;24.90
49529;BME280;35423;37.320;-121.762;2023-01-28T09:46:21;100054.75;;;19.39;24.87
49529;BME280;35423;37.320;-121.762;2023-01-28T09:48:50;100061.56;;;19.36;24.78
49529;BME280;35423;37.320;-121.762;2023-01-28T09:51:27;100062.94;;;19.70;24.91
49529;BME280;35423;37.320;-121.762;2023-01-28T09:53:46;100060.87;;;19.42;25.04
49529;BME280;35423;37.320;-121.762;2023-01-28T09:56:17;100058.56;;;19.32;24.92
49529;BME280;35423;37.320;-121.762;2023-01-28T09:58:38;100059.28;;;19.44;24.83
49529;BME280;35423;37.320;-121.762;2023-01-28T10:01:16;100058.72;;;19.52;24.78
49529;BME280;35423;37.320;-121.762;2023-01-28T10:03:41;100064.27;;;19.58;24.77
49529;BME280;35423;37.320;-121.762;2023-01-28T10:06:07;100065.16;;;19.54;24.87
49529;BME280;35423;37.320;-121.762;2023-01-28T10:08:38;100063.70;;;19.55;24.88
49529;BME280;35423;37.320;-121.762;2023-01-28T10:11:04;100057.56;;;19.56;24.91
49529;BME280;35423;37.320;-121.762;2023-01-28T10:13:39;100058.86;;;19.88;24.90
49529;BME280;35423;37.320;-121.762;2023-01-28T10:16:09;100058.63;;;19.70;24.85
49529;BME280;35423;37.320;-121.762;2023-01-28T10:18:34;100055.92;;;19.68;24.86
49529;BME280;35423;37.320;-121.762;2023-01-28T10:21:07;100055.14;;;19.68;24.89
49529;BME280;35423;37.320;-121.762;2023-01-28T10:23:40;100053.15;;;19.60;24.98
49529;BME280;35423;37.320;-121.762;2023-01-28T10:26:08;100054.67;;;19.57;25.04
49529;BME280;35423;37.320;-121.762;2023-01-28T10:28:35;100056.57;;;19.58;25.08
49529;BME280;35423;37.320;-121.762;2023-01-28T10:31:00;100055.02;;;19.56;25.07
49529;BME280;35423;37.320;-121.762;2023-01-28T10:33:36;100053.45;;;19.51;24.99
49529;BME280;35423;37.320;-121.762;2023-01-28T10:35:58;100052.02;;;19.47;24.93
49529;BME280;35423;37.320;-121.762;2023-01-28T10:38:25;100052.55;;;19.46;24.85
49529;BME280;35423;37.320;-121.762;2023-01-28T10:40:52;100049.09;;;19.46;24.78
49529;BME280;35423;37.320;-121.762;2023-01-28T10:43:19;100048.04;;;19.65;24.77
49529;BME280;35423;37.320;-121.762;2023-01-28T10:45:53;100041.41;;;19.39;24.75
49529;BME280;35423;37.320;-121.762;2023-01-28T10:48:19;100039.53;;;19.63;24.74
49529;BME280;35423;37.320;-121.762;2023-01-28T10:50:50;100039.87;;;19.41;24.70
49529;BME280;35423;37.320;-121.762;2023-01-28T10:53:09;100041.91;;;19.42;24.67
49529;BME280;35423;37.320;-121.762;2023-01-28T10:55:46;100039.87;;;19.42;24.63
49529;BME280;35423;37.320;-121.762;2023-01-28T10:58:13;100037.88;;;19.34;24.61
49529;BME280;35423;37.320;-121.762;2023-01-28T11:00:39;100039.40;;;19.46;24.73
49529;BME280;35423;37.320;-121.762;2023-01-28T11:05:32;100040.91;;;19.54;24.81
49529;BME280;35423;37.320;-121.762;2023-01-28T11:08:04;100045.18;;;19.02;24.77
49529;BME280;35423;37.320;-121.762;2023-01-28T11:10:29;100047.30;;;19.42;24.81
49529;BME280;35423;37.320;-121.762;2023-01-28T11:12:54;100047.29;;;19.33;24.83
49529;BME280;35423;37.320;-121.762;2023-01-28T11:15:30;100043.52;;;18.64;24.95
49529;BME280;35423;37.320;-121.762;2023-01-28T11:18:00;100043.86;;;18.97;25.03
49529;BME280;35423;37.320;-121.762;2023-01-28T11:20:30;100042.67;;;19.25;25.14
49529;BME280;35423;37.320;-121.762;2023-01-28T11:22:59;100037.19;;;18.56;25.36
49529;BME280;35423;37.320;-121.762;2023-01-28T11:25:29;100039.99;;;18.62;25.32
49529;BME280;35423;37.320;-121.762;2023-01-28T11:30:36;100044.72;;;18.58;25.26
49529;BME280;35423;37.320;-121.762;2023-01-28T11:33:12;100045.12;;;18.79;25.33
49529;BME280;35423;37.320;-121.762;2023-01-28T11:35:31;100048.73;;;18.84;25.26
49529;BME280;35423;37.320;-121.762;2023-01-28T11:37:56;100048.83;;;18.84;25.30
49529;BME280;35423;37.320;-121.762;2023-01-28T11:40:27;100047.10;;;18.79;25.37
49529;BME280;35423;37.320;-121.762;2023-01-28T11:42:55;100045.78;;;18.52;25.42
49529;BME280;35423;37.320;-121.762;2023-01-28T11:45:24;100045.35;;;18.52;25.37
49529;BME280;35423;37.320;-121.762;2023-01-28T11:48:03;100049.93;;;18.76;25.37
49529;BME280;35423;37.320;-121.762;2023-01-28T11:50:27;100055.49;;;18.74;25.35
49529;BME280;35423;37.320;-121.762;2023-01-28T11:52:56;100054.63;;;18.68;25.36
49529;BME280;35423;37.320;-121.762;2023-01-28T11:55:20;100054.05;;;18.49;25.33
49529;BME280;35423;37.320;-121.762;2023-01-28T11:57:54;100058.29;;;18.70;25.40
49529;BME280;35423;37.320;-121.762;2023-01-28T12:00:26;100057.97;;;18.70;25.44
49529;BME280;35423;37.320;-121.762;2023-01-28T12:02:48;100059.84;;;18.64;25.54
49529;BME280;35423;37.320;-121.762;2023-01-28T12:05:18;100059.31;;;18.57;25.51
49529;BME280;35423;37.320;-121.762;2023-01-28T12:07:44;100058.59;;;18.55;25.44
49529;BME280;35423;37.320;-121.762;2023-01-28T12:10:17;100063.22;;;18.53;25.49
49529;BME280;35423;37.320;-121.762;2023-01-28T12:12:50;100060.43;;;18.50;25.52
49529;BME280;35423;37.320;-121.762;2023-01-28T12:15:22;100058.74;;;18.54;25.50
49529;BME280;35423;37.320;-121.762;2023-01-28T12:17:52;100059.55;;;18.57;25.51
49529;BME280;35423;37.320;-121.762;2023-01-28T12:20:17;100055.31;;;18.54;25.69
49529;BME280;35423;37.320;-121.762;2023-01-28T12:22:57;100052.59;;;19.08;25.59
49529;BME280;35423;37.320;-121.762;2023-01-28T12:25:31;100056.54;;;18.60;25.92
49529;BME280;35423;37.320;-121.762;2023-01-28T12:27:55;100059.28;;;18.26;26.26
49529;BME280;35423;37.320;-121.762;2023-01-28T12:30:26;100059.62;;;17.90;26.41
49529;BME280;35423;37.320;-121.762;2023-01-28T12:33:01;100060.23;;;17.62;26.29
49529;BME280;35423;37.320;-121.762;2023-01-28T12:37:52;100063.17;;;17.87;26.05
49529;BME280;35423;37.320;-121.762;2023-01-28T12:40:19;100066.48;;;17.97;25.91
49529;BME280;35423;37.320;-121.762;2023-01-28T12:42:38;100065.87;;;18.31;25.89
49529;BME280;35423;37.320;-121.762;2023-01-28T12:45:12;100067.82;;;18.07;25.85